createdAt,value
2022-11-09T00:00:09.834Z,96721.63
2022-11-09T00:02:42.933Z,96722.63
2022-11-09T00:05:12.302Z,96720.97
2022-11-09T00:07:40.537Z,96718.94
2022-11-09T00:10:10.654Z,96712.38
2022-11-09T00:12:39.002Z,96715.03
2022-11-09T00:15:07.724Z,96717.91
2022-11-09T00:17:35.984Z,96714.91
2022-11-09T00:20:04.583Z,96717.59
2022-11-09T00:22:32.866Z,96706.31
2022-11-09T00:25:01.121Z,96711.38
2022-11-09T00:27:31.015Z,96717.94
2022-11-09T00:29:59.234Z,96706.50
2022-11-09T00:32:28.077Z,96703.81
2022-11-09T00:34:56.438Z,96705.19
2022-11-09T00:37:25.029Z,96705.50
2022-11-09T00:39:53.282Z,96705.66
2022-11-09T00:42:21.503Z,96704.50
2022-11-09T00:44:51.119Z,96704.81
2022-11-09T00:47:19.331Z,96715.09
2022-11-09T00:49:47.577Z,96711.88
2022-11-09T00:52:16.072Z,96700.97
2022-11-09T00:54:44.298Z,96708.72
2022-11-09T00:57:13.876Z,96709.88
2022-11-09T00:59:42.183Z,96717.78
2022-11-09T01:02:12.080Z,96719.78
2022-11-09T01:04:40.382Z,96712.41
2022-11-09T01:07:08.832Z,96707.00
2022-11-09T01:09:37.875Z,96714.75
2022-11-09T01:12:06.233Z,96720.28
2022-11-09T01:14:34.475Z,96721.97
2022-11-09T01:17:02.992Z,96715.09
2022-11-09T01:19:32.615Z,96723.97
2022-11-09T01:22:00.841Z,96714.06
2022-11-09T01:24:29.087Z,96717.59
2022-11-09T01:26:57.311Z,96718.28
2022-11-09T01:29:25.850Z,96717.72
2022-11-09T01:31:56.077Z,96719.56
2022-11-09T01:34:24.321Z,96716.75
2022-11-09T01:36:53.927Z,96718.22
2022-11-09T01:39:22.598Z,96728.47
2022-11-09T01:41:53.414Z,96727.00
2022-11-09T01:44:21.848Z,96727.69
2022-11-09T01:46:52.055Z,96718.28
2022-11-09T01:49:25.860Z,96719.28
2022-11-09T01:51:56.956Z,96721.41
2022-11-09T01:54:27.370Z,96721.47
2022-11-09T01:56:57.841Z,96711.34
2022-11-09T01:59:27.867Z,96708.81
2022-11-09T02:01:56.105Z,96715.75
2022-11-09T02:04:25.800Z,96710.38
2022-11-09T02:06:55.521Z,96711.16
2022-11-09T02:09:26.563Z,96714.19
2022-11-09T02:11:55.104Z,96714.53
2022-11-09T02:14:24.059Z,96713.19
2022-11-09T02:16:52.275Z,96722.59
2022-11-09T02:19:20.810Z,96711.00
2022-11-09T02:21:50.628Z,96718.22
2022-11-09T02:24:19.101Z,96714.03
2022-11-09T02:26:48.774Z,96720.56
2022-11-09T02:29:18.679Z,96721.41
2022-11-09T02:31:48.044Z,96714.69
2022-11-09T02:34:18.363Z,96695.88
2022-11-09T02:36:46.853Z,96698.72
2022-11-09T02:39:17.823Z,96701.75
2022-11-09T02:41:48.082Z,96704.44
2022-11-09T02:44:16.776Z,96705.09
2022-11-09T02:46:45.004Z,96700.91
2022-11-09T02:49:13.256Z,96697.72
2022-11-09T02:51:41.481Z,96708.13
2022-11-09T02:54:10.035Z,96710.16
2022-11-09T02:56:39.621Z,96703.09
2022-11-09T02:59:07.862Z,96701.56
2022-11-09T03:01:36.116Z,96704.09
2022-11-09T03:04:04.682Z,96713.50
2022-11-09T03:06:36.311Z,96716.19
2022-11-09T03:09:05.121Z,96717.53
2022-11-09T03:11:33.379Z,96705.09
2022-11-09T03:14:03.047Z,96710.78
2022-11-09T03:16:31.271Z,96714.00
2022-11-09T03:18:59.618Z,96710.78
2022-11-09T03:21:27.859Z,96716.84
2022-11-09T03:23:56.168Z,96714.31
2022-11-09T03:26:24.426Z,96712.16
2022-11-09T03:28:53.006Z,96717.38
2022-11-09T03:31:22.614Z,96717.84
2022-11-09T03:33:50.860Z,96716.00
2022-11-09T03:36:19.415Z,96722.38
2022-11-09T03:38:47.665Z,96728.59
2022-11-09T03:41:15.907Z,96719.38
2022-11-09T03:43:44.144Z,96721.56
2022-11-09T03:46:12.405Z,96721.06
2022-11-09T03:48:42.314Z,96726.94
2022-11-09T03:51:10.576Z,96721.75
2022-11-09T03:53:38.836Z,96725.22
2022-11-09T03:56:07.575Z,96725.91
2022-11-09T03:58:36.251Z,96729.59
2022-11-09T04:01:04.504Z,96737.34
2022-11-09T04:03:32.736Z,96744.38
2022-11-09T04:06:02.382Z,96733.81
2022-11-09T04:08:30.623Z,96732.63
2022-11-09T04:10:58.904Z,96742.72
2022-11-09T04:13:27.163Z,96734.97
2022-11-09T04:15:55.424Z,96737.34
2022-11-09T04:18:23.675Z,96735.31
2022-11-09T04:20:52.216Z,96750.81
2022-11-09T04:23:22.286Z,96743.25
2022-11-09T04:25:50.871Z,96743.38
2022-11-09T04:28:19.140Z,96744.75
2022-11-09T04:30:47.726Z,96734.97
2022-11-09T04:33:16.023Z,96741.72
2022-11-09T04:35:44.292Z,96742.72
2022-11-09T04:38:13.840Z,96750.47
2022-11-09T04:40:43.819Z,96747.44
2022-11-09T04:43:13.276Z,96751.78
2022-11-09T04:45:41.619Z,96746.78
2022-11-09T04:48:11.124Z,96749.94
2022-11-09T04:50:39.412Z,96741.19
2022-11-09T04:53:09.034Z,96743.75
2022-11-09T04:55:37.594Z,96744.09
2022-11-09T04:58:07.270Z,96751.47
2022-11-09T05:00:35.643Z,96751.47
2022-11-09T05:03:04.448Z,96744.28
2022-11-09T05:05:33.911Z,96740.38
2022-11-09T05:08:02.238Z,96748.78
2022-11-09T05:10:33.944Z,96752.78
2022-11-09T05:13:06.750Z,96751.97
2022-11-09T05:15:36.893Z,96752.47
2022-11-09T05:18:05.441Z,96758.53
2022-11-09T05:23:33.575Z,96759.13
2022-11-09T05:26:01.830Z,96770.13
2022-11-09T05:28:30.089Z,96772.28
2022-11-09T05:30:59.748Z,96766.91
2022-11-09T05:33:28.325Z,96772.94
2022-11-09T05:35:56.659Z,96776.97
2022-11-09T05:38:24.973Z,96770.59
2022-11-09T05:40:53.346Z,96780.91
2022-11-09T05:43:22.170Z,96776.19
2022-11-09T05:45:50.596Z,96780.88
2022-11-09T05:48:20.232Z,96789.41
2022-11-09T05:50:48.778Z,96777.22
2022-11-09T05:53:17.223Z,96778.84
2022-11-09T05:55:45.589Z,96783.56
2022-11-09T05:58:13.832Z,96774.41
2022-11-09T06:00:42.102Z,96778.06
2022-11-09T06:03:11.157Z,96770.63
2022-11-09T06:05:41.443Z,96770.63
2022-11-09T06:08:10.756Z,96787.34
2022-11-09T06:10:39.334Z,96766.97
2022-11-09T06:13:07.587Z,96773.81
2022-11-09T06:15:35.854Z,96772.97
2022-11-09T06:18:04.216Z,96780.53
2022-11-09T06:20:33.340Z,96785.63
2022-11-09T06:23:04.334Z,96786.63
2022-11-09T06:25:34.099Z,96782.06
2022-11-09T06:28:02.696Z,96778.19
2022-11-09T06:30:31.358Z,96768.13
2022-11-09T06:33:00.559Z,96777.75
2022-11-09T06:35:28.806Z,96780.91
2022-11-09T06:37:58.519Z,96775.75
2022-11-09T06:40:28.156Z,96786.97
2022-11-09T06:42:58.524Z,96799.09
2022-11-09T06:45:26.801Z,96796.25
2022-11-09T06:47:57.203Z,96799.38
2022-11-09T06:50:25.733Z,96799.34
2022-11-09T06:52:57.634Z,96811.72
2022-11-09T06:55:27.325Z,96823.03
2022-11-09T06:57:55.624Z,96839.50
2022-11-09T07:00:23.972Z,96829.38
2022-11-09T07:02:52.602Z,96824.81
2022-11-09T07:05:20.969Z,96820.28
2022-11-09T07:07:49.312Z,96816.34
2022-11-09T07:10:17.875Z,96828.34
2022-11-09T07:12:47.510Z,96825.22
2022-11-09T07:15:15.756Z,96828.00
2022-11-09T07:17:44.052Z,96828.84
2022-11-09T07:20:14.952Z,96820.28
2022-11-09T07:22:43.316Z,96832.16
2022-11-09T07:25:12.755Z,96826.94
2022-11-09T07:27:41.111Z,96829.59
2022-11-09T07:30:11.478Z,96841.59
2022-11-09T07:33:08.105Z,96846.19
2022-11-09T07:35:28.723Z,96843.44
2022-11-09T07:37:59.971Z,96848.50
2022-11-09T07:40:28.604Z,96852.00
2022-11-09T07:42:59.659Z,96858.34
2022-11-09T07:45:29.376Z,96854.22
2022-11-09T07:47:58.280Z,96858.56
2022-11-09T07:50:26.607Z,96864.22
2022-11-09T07:52:56.268Z,96855.88
2022-11-09T07:55:24.606Z,96850.84
2022-11-09T07:57:56.908Z,96859.28
2022-11-09T08:00:25.795Z,96866.09
2022-11-09T08:02:55.417Z,96867.66
2022-11-09T08:05:23.664Z,96868.16
2022-11-09T08:07:59.541Z,96876.13
2022-11-09T08:10:30.127Z,96874.91
2022-11-09T08:12:59.138Z,96864.13
2022-11-09T08:15:27.901Z,96871.94
2022-11-09T08:18:00.586Z,96880.28
2022-11-09T08:20:28.895Z,96878.75
2022-11-09T08:23:01.012Z,96883.88
2022-11-09T08:25:32.179Z,96884.91
2022-11-09T08:28:00.485Z,96885.44
2022-11-09T08:30:28.994Z,96884.34
2022-11-09T08:32:59.690Z,96887.97
2022-11-09T08:35:28.156Z,96894.03
2022-11-09T08:37:56.476Z,96888.31
2022-11-09T08:40:25.595Z,96891.16
2022-11-09T08:42:54.311Z,96894.09
2022-11-09T08:45:22.596Z,96898.69
2022-11-09T08:47:50.946Z,96899.53
2022-11-09T08:50:22.263Z,96893.50
2022-11-09T08:52:52.778Z,96889.38
2022-11-09T08:55:21.166Z,96899.97
2022-11-09T08:57:49.465Z,96902.75
2022-11-09T09:00:18.575Z,96905.19
2022-11-09T09:02:46.959Z,96907.59
2022-11-09T09:05:15.667Z,96911.69
2022-11-09T09:07:45.354Z,96907.50
2022-11-09T09:10:13.911Z,96910.31
2022-11-09T09:12:42.220Z,96898.66
2022-11-09T09:15:10.922Z,96905.97
2022-11-09T09:17:39.214Z,96908.25
2022-11-09T09:20:08.065Z,96921.16
2022-11-09T09:22:36.358Z,96910.16
2022-11-09T09:25:06.335Z,96910.78
2022-11-09T09:27:35.405Z,96910.00
2022-11-09T09:30:03.696Z,96903.47
2022-11-09T09:32:32.664Z,96911.38
2022-11-09T09:35:44.479Z,96909.19
2022-11-09T09:38:24.306Z,96912.09
2022-11-09T09:40:58.546Z,96919.34
2022-11-09T09:43:30.928Z,96905.31
2022-11-09T09:45:59.726Z,96916.31
2022-11-09T09:48:31.799Z,96917.97
2022-11-09T09:51:02.232Z,96916.81
2022-11-09T09:53:32.678Z,96912.00
2022-11-09T09:56:05.405Z,96916.38
2022-11-09T09:58:34.985Z,96927.13
2022-11-09T10:01:07.019Z,96914.59
2022-11-09T10:03:35.585Z,96919.84
2022-11-09T10:06:08.923Z,96922.28
2022-11-09T10:08:43.082Z,96921.75
2022-11-09T10:11:18.752Z,96912.13
2022-11-09T10:14:00.451Z,96922.03
2022-11-09T10:16:30.665Z,96916.53
2022-11-09T10:19:17.635Z,96913.88
2022-11-09T10:21:48.344Z,96914.00
2022-11-09T10:24:24.133Z,96916.28
2022-11-09T10:26:55.923Z,96912.16
2022-11-09T10:29:25.214Z,96911.03
2022-11-09T10:31:54.441Z,96909.69
2022-11-09T10:34:25.317Z,96910.75
2022-11-09T10:36:59.285Z,96914.28
2022-11-09T10:39:37.953Z,96915.84
2022-11-09T10:42:17.028Z,96911.31
2022-11-09T10:44:46.351Z,96917.22
2022-11-09T10:47:16.476Z,96918.53
2022-11-09T10:49:44.857Z,96909.00
2022-11-09T10:52:31.662Z,96905.78
2022-11-09T10:55:17.385Z,96919.22
2022-11-09T10:57:58.032Z,96916.19
2022-11-09T11:00:26.375Z,96916.03
2022-11-09T11:02:54.904Z,96912.38
2022-11-09T11:05:26.327Z,96900.56
2022-11-09T11:07:54.702Z,96902.41
2022-11-09T11:10:23.749Z,96904.78
2022-11-09T11:13:14.641Z,96901.91
2022-11-09T11:15:43.291Z,96911.84
2022-11-09T11:18:17.089Z,96917.53
2022-11-09T11:20:45.418Z,96921.09
2022-11-09T11:23:15.279Z,96914.38
2022-11-09T11:25:58.692Z,96918.06
2022-11-09T11:28:33.671Z,96916.38
2022-11-09T11:31:02.535Z,96911.16
2022-11-09T11:33:32.199Z,96908.31
2022-11-09T11:36:08.348Z,96910.31
2022-11-09T11:38:38.770Z,96906.47
2022-11-09T11:41:16.058Z,96905.06
2022-11-09T11:43:48.416Z,96908.09
2022-11-09T11:46:19.063Z,96906.09
2022-11-09T11:49:00.454Z,96919.22
2022-11-09T11:51:33.872Z,96905.78
2022-11-09T11:54:07.796Z,96909.63
2022-11-09T11:56:37.722Z,96904.06
2022-11-09T11:59:22.284Z,96910.00
2022-11-09T12:02:00.115Z,96914.00
2022-11-09T12:04:38.015Z,96913.03
2022-11-09T12:07:11.462Z,96902.94
2022-11-09T12:09:52.490Z,96908.84
2022-11-09T12:12:28.144Z,96910.00
2022-11-09T12:15:05.894Z,96892.47
2022-11-09T12:17:40.156Z,96907.09
2022-11-09T12:20:22.553Z,96905.78
2022-11-09T12:22:56.896Z,96904.59
2022-11-09T12:25:27.461Z,96899.72
2022-11-09T12:28:12.200Z,96902.91
2022-11-09T12:30:48.433Z,96902.91
2022-11-09T12:33:19.078Z,96908.47
2022-11-09T12:35:49.279Z,96908.16
2022-11-09T12:38:20.210Z,96899.88
2022-11-09T12:40:54.954Z,96904.94
2022-11-09T12:43:26.941Z,96900.88
2022-11-09T12:45:56.592Z,96898.03
2022-11-09T12:48:26.889Z,96905.09
2022-11-09T12:50:55.274Z,96901.88
2022-11-09T12:53:25.354Z,96909.59
2022-11-09T12:55:55.273Z,96907.41
2022-11-09T12:58:25.429Z,96907.75
2022-11-09T13:00:57.005Z,96911.13
2022-11-09T13:03:27.685Z,96901.38
2022-11-09T13:06:14.080Z,96905.78
2022-11-09T13:08:42.525Z,96891.94
2022-11-09T13:11:13.000Z,96894.50
2022-11-09T13:13:41.256Z,96908.63
2022-11-09T13:16:14.688Z,96899.69
2022-11-09T13:18:51.459Z,96912.53
2022-11-09T13:21:36.003Z,96903.56
2022-11-09T13:24:34.459Z,96898.38
2022-11-09T13:27:03.797Z,96897.72
2022-11-09T13:29:35.208Z,96910.66
2022-11-09T13:32:18.700Z,96919.06
2022-11-09T13:34:48.206Z,96919.91
2022-11-09T13:37:36.505Z,96919.22
2022-11-09T13:40:36.155Z,96931.53
2022-11-09T13:43:05.397Z,96931.16
2022-11-09T13:45:35.506Z,96912.81
2022-11-09T13:48:05.973Z,96920.75
2022-11-09T13:50:34.920Z,96920.56
2022-11-09T13:53:03.301Z,96931.00
2022-11-09T13:55:33.788Z,96926.16
2022-11-09T13:58:05.832Z,96931.53
2022-11-09T14:00:34.472Z,96926.31
2022-11-09T14:03:06.884Z,96931.91
2022-11-09T14:05:37.838Z,96941.97
2022-11-09T14:08:06.391Z,96934.22
2022-11-09T14:10:42.780Z,96946.59
2022-11-09T14:13:20.466Z,96947.44
2022-11-09T14:15:51.629Z,96955.00
2022-11-09T14:18:28.208Z,96955.31
2022-11-09T14:20:58.720Z,96957.00
2022-11-09T14:23:30.367Z,96956.38
2022-11-09T14:25:58.633Z,96963.13
2022-11-09T14:28:32.701Z,96953.81
2022-11-09T14:31:02.244Z,96964.63
2022-11-09T14:33:35.567Z,96972.19
2022-11-09T14:36:07.565Z,96963.44
2022-11-09T14:38:46.155Z,96959.34
2022-11-09T14:41:22.646Z,96959.34
2022-11-09T14:43:52.959Z,96973.44
2022-11-09T14:46:22.719Z,96983.69
2022-11-09T14:48:53.253Z,96979.47
2022-11-09T14:51:22.079Z,96975.13
2022-11-09T14:53:50.539Z,96989.81
2022-11-09T14:56:37.398Z,96986.63
2022-11-09T14:59:06.406Z,96994.06
2022-11-09T15:01:34.676Z,96995.59
2022-11-09T15:04:12.395Z,96999.06
2022-11-09T15:06:46.853Z,96997.22
2022-11-09T15:09:17.351Z,97003.28
2022-11-09T15:11:45.773Z,97005.59
2022-11-09T15:14:15.765Z,97007.00
2022-11-09T15:16:44.344Z,97017.50
2022-11-09T15:19:29.030Z,97016.34
2022-11-09T15:21:57.714Z,97025.66
2022-11-09T15:24:26.580Z,97015.59
2022-11-09T15:26:55.019Z,97014.66
2022-11-09T15:29:29.818Z,97016.06
2022-11-09T15:31:59.577Z,97022.34
2022-11-09T15:34:33.801Z,97018.25
2022-11-09T15:37:02.390Z,97025.03
2022-11-09T15:39:30.784Z,97021.03
2022-11-09T15:41:59.078Z,97029.72
2022-11-09T15:44:27.328Z,97040.47
2022-11-09T15:46:55.736Z,97037.56
2022-11-09T15:49:24.903Z,97041.16
2022-11-09T15:51:54.926Z,97055.38
2022-11-09T15:54:24.085Z,97045.94
2022-11-09T15:56:52.510Z,97049.09
2022-11-09T15:59:22.142Z,97063.38
2022-11-09T16:01:51.048Z,97053.03
2022-11-09T16:04:37.894Z,97060.94
2022-11-09T16:07:08.777Z,97068.69
2022-11-09T16:09:40.274Z,97075.13
2022-11-09T16:12:08.650Z,97090.47
2022-11-09T16:14:37.522Z,97083.53
2022-11-09T16:17:06.556Z,97087.84
2022-11-09T16:19:35.195Z,97083.03
2022-11-09T16:22:03.564Z,97095.69
2022-11-09T16:24:33.294Z,97104.91
2022-11-09T16:27:01.917Z,97101.84
2022-11-09T16:29:30.632Z,97105.59
2022-11-09T16:31:58.970Z,97121.09
2022-11-09T16:34:27.311Z,97125.25
2022-11-09T16:36:57.079Z,97124.53
2022-11-09T16:39:25.732Z,97121.16
2022-11-09T16:41:57.890Z,97122.56
2022-11-09T16:44:26.382Z,97129.84
2022-11-09T16:46:54.693Z,97133.38
2022-11-09T16:49:23.066Z,97132.69
2022-11-09T16:51:51.378Z,97136.00
2022-11-09T16:54:25.262Z,97143.91
2022-11-09T16:56:55.215Z,97147.72
2022-11-09T16:59:23.589Z,97141.50
2022-11-09T17:01:52.907Z,97148.72
2022-11-09T17:04:21.270Z,97153.00
2022-11-09T17:06:49.706Z,97161.75
2022-11-09T17:09:18.688Z,97157.06
2022-11-09T17:11:46.945Z,97163.19
2022-11-09T17:14:22.645Z,97170.47
2022-11-09T17:16:51.389Z,97178.97
2022-11-09T17:19:20.648Z,97188.78
2022-11-09T17:21:49.588Z,97180.91
2022-11-09T17:24:18.202Z,97191.31
2022-11-09T17:26:46.499Z,97189.63
2022-11-09T17:29:16.612Z,97193.19
2022-11-09T17:31:45.432Z,97197.00
2022-11-09T17:34:13.987Z,97204.66
2022-11-09T17:37:03.132Z,97197.66
2022-11-09T17:39:30.460Z,97206.78
2022-11-09T17:41:58.760Z,97219.94
2022-11-09T17:44:46.849Z,97221.34
2022-11-09T17:47:15.120Z,97226.03
2022-11-09T17:49:43.400Z,97231.06
2022-11-09T17:52:12.014Z,97238.00
2022-11-09T17:54:40.265Z,97235.81
2022-11-09T17:57:08.523Z,97236.84
2022-11-09T17:59:38.150Z,97240.75
2022-11-09T18:02:06.703Z,97246.41
2022-11-09T18:04:34.988Z,97237.13
2022-11-09T18:07:08.418Z,97247.56
2022-11-09T18:09:42.379Z,97248.25
2022-11-09T18:12:11.179Z,97261.28
2022-11-09T18:14:59.517Z,97261.13
2022-11-09T18:17:27.803Z,97258.97
2022-11-09T18:19:56.071Z,97273.78
2022-11-09T18:22:24.640Z,97273.69
2022-11-09T18:24:52.906Z,97277.31
2022-11-09T18:27:22.884Z,97284.06
2022-11-09T18:29:56.367Z,97278.59
2022-11-09T18:32:26.329Z,97288.13
2022-11-09T18:34:54.647Z,97293.50
2022-11-09T18:37:23.387Z,97295.16
2022-11-09T18:40:09.336Z,97293.78
2022-11-09T18:42:37.594Z,97303.63
2022-11-09T18:45:06.413Z,97300.66
2022-11-09T18:47:36.083Z,97308.63
2022-11-09T18:50:04.442Z,97307.34
2022-11-09T18:52:37.697Z,97319.50
2022-11-09T18:55:08.697Z,97319.34
2022-11-09T18:57:37.049Z,97315.38
2022-11-09T19:00:05.982Z,97322.44
2022-11-09T19:02:35.984Z,97332.47
2022-11-09T19:05:04.325Z,97335.41
2022-11-09T19:07:32.896Z,97338.13
2022-11-09T19:10:01.142Z,97339.84
2022-11-09T19:12:29.758Z,97342.63
2022-11-09T19:14:58.017Z,97342.50
2022-11-09T19:17:28.343Z,97347.56
2022-11-09T19:19:57.980Z,97349.72
2022-11-09T19:22:28.823Z,97352.25
2022-11-09T19:24:57.085Z,97358.59
2022-11-09T19:27:28.935Z,97354.06
2022-11-09T19:29:57.192Z,97362.69
2022-11-09T19:32:25.591Z,97363.13
2022-11-09T19:34:53.834Z,97363.69
2022-11-09T19:37:23.438Z,97373.16
2022-11-09T19:39:51.696Z,97374.97
2022-11-09T19:42:19.972Z,97380.19
2022-11-09T19:44:52.201Z,97372.28
2022-11-09T19:47:24.374Z,97380.22
2022-11-09T19:49:53.240Z,97380.22
2022-11-09T19:52:45.560Z,97385.84
2022-11-09T19:55:13.831Z,97381.19
2022-11-09T19:57:42.355Z,97394.44
2022-11-09T20:00:11.673Z,97385.44
2022-11-09T20:02:39.980Z,97396.28
2022-11-09T20:05:09.364Z,97402.34
2022-11-09T20:07:37.600Z,97411.41
2022-11-09T20:10:09.060Z,97401.66
2022-11-09T20:12:51.482Z,97410.25
2022-11-09T20:15:19.821Z,97415.81
2022-11-09T20:17:48.153Z,97415.19
2022-11-09T20:20:16.626Z,97423.38
2022-11-09T20:22:44.948Z,97437.09
2022-11-09T20:25:14.567Z,97432.00
2022-11-09T20:27:43.130Z,97442.00
2022-11-09T20:30:12.006Z,97441.88
2022-11-09T20:32:40.265Z,97444.75
2022-11-09T20:35:09.369Z,97456.13
2022-11-09T20:37:37.878Z,97463.66
2022-11-09T20:40:08.147Z,97453.59
2022-11-09T20:42:37.938Z,97463.78
2022-11-09T20:45:06.853Z,97470.28
2022-11-09T20:48:03.202Z,97474.19
2022-11-09T20:50:26.450Z,97484.03
2022-11-09T20:52:55.009Z,97484.38
2022-11-09T20:55:25.578Z,97481.00
2022-11-09T20:57:55.207Z,97492.25
2022-11-09T21:00:24.629Z,97490.72
2022-11-09T21:02:53.724Z,97497.41
2022-11-09T21:05:22.046Z,97493.97
2022-11-09T21:07:50.332Z,97488.78
2022-11-09T21:10:19.166Z,97498.25
2022-11-09T21:12:47.480Z,97497.47
2022-11-09T21:15:17.163Z,97497.47
2022-11-09T21:17:45.721Z,97500.47
2022-11-09T21:20:14.916Z,97502.00
2022-11-09T21:22:56.933Z,97504.69
2022-11-09T21:25:39.296Z,97497.78
2022-11-09T21:28:28.255Z,97511.34
2022-11-09T21:31:00.989Z,97518.53
2022-11-09T21:33:29.631Z,97526.72
2022-11-09T21:35:57.877Z,97521.63
2022-11-09T21:38:26.107Z,97527.97
2022-11-09T21:40:54.522Z,97526.97
2022-11-09T21:43:23.121Z,97528.44
2022-11-09T21:45:54.094Z,97528.03
2022-11-09T21:48:24.046Z,97533.56
2022-11-09T21:50:52.967Z,97534.78
2022-11-09T21:53:21.589Z,97535.75
2022-11-09T21:55:50.109Z,97536.53
2022-11-09T21:58:18.374Z,97542.78
2022-11-09T22:00:46.633Z,97541.06
2022-11-09T22:03:14.908Z,97554.66
2022-11-09T22:05:44.562Z,97545.06
2022-11-09T22:08:12.821Z,97554.13
2022-11-09T22:10:41.229Z,97548.69
2022-11-09T22:13:24.810Z,97548.28
2022-11-09T22:16:06.868Z,97554.06
2022-11-09T22:18:49.891Z,97555.84
2022-11-09T22:21:19.600Z,97556.69
2022-11-09T22:23:47.891Z,97557.63
2022-11-09T22:26:16.571Z,97551.34
2022-11-09T22:28:44.834Z,97559.59
2022-11-09T22:31:13.781Z,97558.78
2022-11-09T22:33:42.328Z,97555.81
2022-11-09T22:36:12.158Z,97563.25
2022-11-09T22:38:41.852Z,97559.50
2022-11-09T22:41:11.963Z,97558.88
2022-11-09T22:43:40.739Z,97573.84
2022-11-09T22:46:09.692Z,97569.94
2022-11-09T22:48:38.252Z,97573.13
2022-11-09T22:51:07.031Z,97564.53
2022-11-09T22:53:35.338Z,97575.44
2022-11-09T22:56:05.051Z,97579.63
2022-11-09T22:58:33.566Z,97577.72
2022-11-09T23:01:06.574Z,97586.41
2022-11-09T23:03:35.035Z,97585.84
2022-11-09T23:06:03.963Z,97588.41
2022-11-09T23:08:37.569Z,97599.81
2022-11-09T23:11:07.914Z,97594.06
2022-11-09T23:13:36.693Z,97605.63
2022-11-09T23:16:06.108Z,97613.34
2022-11-09T23:18:48.231Z,97611.88
2022-11-09T23:21:16.504Z,97615.22
2022-11-09T23:23:44.748Z,97617.22
2022-11-09T23:26:14.488Z,97619.72
2022-11-09T23:28:42.851Z,97616.25
2022-11-09T23:31:11.851Z,97620.34
2022-11-09T23:33:40.084Z,97620.81
2022-11-09T23:36:08.961Z,97625.16
2022-11-09T23:38:38.151Z,97637.00
2022-11-09T23:41:07.312Z,97632.16
2022-11-09T23:43:36.997Z,97635.56
2022-11-09T23:46:06.713Z,97648.59
2022-11-09T23:48:35.081Z,97650.88
2022-11-09T23:51:03.494Z,97651.78
2022-11-09T23:53:32.323Z,97655.97
2022-11-09T23:56:02.335Z,97661.94
2022-11-09T23:58:30.579Z,97670.84
